createdAt,value
2023-01-17T00:02:16.036Z,82.18
2023-01-17T00:05:03.693Z,81.28
2023-01-17T00:07:49.808Z,82.66
2023-01-17T00:10:19.521Z,82.35
2023-01-17T00:12:49.543Z,82.90
2023-01-17T00:15:20.092Z,83.35
2023-01-17T00:17:49.252Z,83.74
2023-01-17T00:20:39.505Z,84.01
2023-01-17T00:23:26.785Z,82.95
2023-01-17T00:26:04.564Z,83.16
2023-01-17T00:28:34.532Z,84.31
2023-01-17T00:31:01.998Z,83.13
2023-01-17T00:33:29.560Z,83.33
2023-01-17T00:35:59.639Z,82.68
2023-01-17T00:38:29.359Z,83.06
2023-01-17T00:41:02.833Z,82.92
2023-01-17T00:43:49.378Z,82.64
2023-01-17T00:46:36.209Z,82.57
2023-01-17T00:49:22.577Z,82.65
2023-01-17T00:52:09.954Z,83.89
2023-01-17T00:54:56.094Z,83.01
2023-01-17T00:57:42.712Z,83.02
2023-01-17T01:00:30.360Z,82.72
2023-01-17T01:03:16.547Z,81.91
2023-01-17T01:06:02.351Z,81.82
2023-01-17T01:08:49.687Z,82.06
2023-01-17T01:11:39.580Z,82.40
2023-01-17T01:14:27.302Z,82.20
2023-01-17T01:17:13.356Z,82.68
2023-01-17T01:19:59.116Z,82.58
2023-01-17T01:22:44.968Z,82.15
2023-01-17T01:25:32.485Z,81.76
2023-01-17T01:28:25.329Z,82.14
2023-01-17T01:31:10.970Z,81.79
2023-01-17T01:33:39.568Z,81.11
2023-01-17T01:36:10.513Z,81.55
2023-01-17T01:38:39.896Z,81.90
2023-01-17T01:41:10.324Z,81.44
2023-01-17T01:43:46.742Z,81.68
2023-01-17T01:46:19.756Z,82.05
2023-01-17T01:48:54.941Z,81.27
2023-01-17T01:51:28.445Z,82.26
2023-01-17T01:54:03.769Z,81.96
2023-01-17T01:56:34.822Z,82.68
2023-01-17T01:59:05.898Z,83.02
2023-01-17T02:01:35.629Z,81.59
2023-01-17T02:04:09.826Z,81.72
2023-01-17T02:06:42.987Z,82.64
2023-01-17T02:09:14.022Z,82.56
2023-01-17T02:11:45.496Z,82.73
2023-01-17T02:14:16.877Z,82.67
2023-01-17T02:17:07.246Z,82.77
2023-01-17T02:20:34.528Z,82.35
2023-01-17T02:23:50.122Z,82.84
2023-01-17T02:27:02.684Z,82.46
2023-01-17T02:30:26.817Z,82.61
2023-01-17T02:33:08.090Z,83.08
2023-01-17T02:35:48.548Z,82.93
2023-01-17T02:38:31.633Z,83.03
2023-01-17T02:41:05.623Z,82.97
2023-01-17T02:43:34.878Z,83.06
2023-01-17T02:46:04.853Z,82.43
2023-01-17T02:48:36.786Z,82.44
2023-01-17T02:51:36.790Z,82.58
2023-01-17T02:54:22.504Z,84.20
2023-01-17T02:57:04.675Z,84.01
2023-01-17T02:59:45.203Z,82.98
2023-01-17T03:02:23.837Z,83.07
2023-01-17T03:05:00.874Z,83.68
2023-01-17T03:07:30.577Z,83.40
2023-01-17T03:10:03.635Z,83.44
2023-01-17T03:12:34.664Z,83.71
2023-01-17T03:15:03.220Z,83.82
2023-01-17T03:17:34.530Z,82.93
2023-01-17T03:20:03.280Z,82.35
2023-01-17T03:22:31.694Z,82.53
2023-01-17T03:25:00.102Z,83.29
2023-01-17T03:27:28.525Z,84.34
2023-01-17T03:29:57.324Z,83.45
2023-01-17T03:32:25.843Z,82.80
2023-01-17T03:34:55.906Z,82.48
2023-01-17T03:37:24.377Z,82.39
2023-01-17T03:39:52.794Z,82.01
2023-01-17T03:42:21.195Z,82.90
2023-01-17T03:44:49.618Z,83.48
2023-01-17T03:47:18.020Z,84.14
2023-01-17T03:49:46.469Z,84.29
2023-01-17T03:52:16.359Z,84.99
2023-01-17T03:54:45.034Z,82.64
2023-01-17T03:57:13.456Z,81.89
2023-01-17T03:59:42.172Z,81.61
2023-01-17T04:02:10.716Z,81.98
2023-01-17T04:04:39.222Z,82.24
2023-01-17T04:07:07.645Z,84.00
2023-01-17T04:09:37.721Z,82.37
2023-01-17T04:12:06.354Z,82.39
2023-01-17T04:14:34.771Z,82.82
2023-01-17T04:17:04.191Z,82.34
2023-01-17T04:19:35.516Z,82.70
2023-01-17T04:22:04.225Z,82.29
2023-01-17T04:24:32.645Z,82.71
2023-01-17T04:27:02.663Z,84.01
2023-01-17T04:29:31.076Z,84.08
2023-01-17T04:31:59.513Z,83.70
2023-01-17T04:34:28.674Z,84.06
2023-01-17T04:36:57.339Z,83.93
2023-01-17T04:39:25.744Z,83.58
2023-01-17T04:41:54.154Z,84.56
2023-01-17T04:44:24.077Z,84.17
2023-01-17T04:46:52.685Z,84.74
2023-01-17T04:49:21.116Z,83.59
2023-01-17T04:51:49.759Z,84.20
2023-01-17T04:54:18.361Z,82.55
2023-01-17T04:56:46.775Z,84.07
2023-01-17T04:59:15.408Z,83.39
2023-01-17T05:01:45.464Z,84.38
2023-01-17T05:04:13.895Z,84.03
2023-01-17T05:09:31.738Z,85.53
2023-01-17T05:12:00.272Z,85.15
2023-01-17T05:14:28.712Z,84.86
2023-01-17T05:16:59.297Z,85.97
2023-01-17T05:19:28.877Z,85.49
2023-01-17T05:22:03.917Z,85.08
2023-01-17T05:24:32.836Z,84.55
2023-01-17T05:27:03.827Z,85.38
2023-01-17T05:29:32.304Z,85.97
2023-01-17T05:32:02.095Z,83.72
2023-01-17T05:34:30.778Z,86.29
2023-01-17T05:36:59.349Z,87.26
2023-01-17T05:39:27.825Z,89.20
2023-01-17T05:41:56.797Z,87.36
2023-01-17T05:44:27.464Z,88.21
2023-01-17T05:46:56.336Z,87.28
2023-01-17T05:49:26.250Z,86.99
2023-01-17T05:51:55.137Z,86.76
2023-01-17T05:54:24.470Z,89.12
2023-01-17T05:56:52.861Z,88.19
2023-01-17T05:59:32.405Z,86.24
2023-01-17T06:02:05.123Z,86.45
2023-01-17T06:04:35.050Z,86.15
2023-01-17T06:07:03.507Z,86.17
2023-01-17T06:09:31.931Z,85.89
2023-01-17T06:12:00.579Z,86.08
2023-01-17T06:14:28.992Z,86.87
2023-01-17T06:16:57.413Z,87.26
2023-01-17T06:19:25.807Z,87.23
2023-01-17T06:21:55.583Z,88.28
2023-01-17T06:24:24.026Z,88.94
2023-01-17T06:26:52.451Z,88.04
2023-01-17T06:29:20.856Z,86.48
2023-01-17T06:31:49.471Z,85.66
2023-01-17T06:34:18.159Z,85.93
2023-01-17T06:36:46.772Z,86.97
2023-01-17T06:39:16.653Z,87.88
2023-01-17T06:41:45.101Z,89.13
2023-01-17T06:44:13.765Z,89.18
2023-01-17T06:46:42.511Z,87.61
2023-01-17T06:49:10.992Z,87.10
2023-01-17T06:51:39.627Z,87.02
2023-01-17T06:54:08.665Z,86.79
2023-01-17T06:56:38.867Z,87.34
2023-01-17T06:59:07.704Z,86.17
2023-01-17T07:01:36.330Z,85.61
2023-01-17T07:04:06.374Z,86.42
2023-01-17T07:06:37.543Z,86.64
2023-01-17T07:09:06.333Z,85.98
2023-01-17T07:11:34.737Z,85.83
2023-01-17T07:14:04.533Z,84.86
2023-01-17T07:16:33.223Z,84.46
2023-01-17T07:19:01.654Z,86.38
2023-01-17T07:21:30.264Z,85.55
2023-01-17T07:23:58.675Z,86.60
2023-01-17T07:26:27.069Z,86.60
2023-01-17T07:28:55.520Z,88.57
2023-01-17T07:31:25.609Z,87.76
2023-01-17T07:33:54.043Z,85.55
2023-01-17T07:36:23.474Z,84.88
2023-01-17T07:38:51.925Z,86.49
2023-01-17T07:41:20.399Z,87.63
2023-01-17T07:43:48.989Z,84.52
2023-01-17T07:46:17.496Z,86.91
2023-01-17T07:48:47.320Z,87.30
2023-01-17T07:51:16.219Z,85.42
2023-01-17T07:53:44.651Z,86.34
2023-01-17T07:56:13.066Z,87.09
2023-01-17T07:58:41.538Z,85.95
2023-01-17T08:01:12.854Z,86.09
2023-01-17T08:03:41.895Z,86.45
2023-01-17T08:06:22.091Z,85.25
2023-01-17T08:08:50.995Z,86.50
2023-01-17T08:11:19.771Z,85.08
2023-01-17T08:13:48.250Z,84.40
2023-01-17T08:16:16.824Z,86.50
2023-01-17T08:18:45.292Z,85.75
2023-01-17T08:21:17.434Z,85.59
2023-01-17T08:23:49.292Z,84.43
2023-01-17T08:26:21.575Z,84.20
2023-01-17T08:28:51.333Z,85.65
2023-01-17T08:31:20.945Z,85.97
2023-01-17T08:33:49.399Z,85.94
2023-01-17T08:36:19.402Z,85.46
2023-01-17T08:38:52.700Z,85.94
2023-01-17T08:41:21.355Z,85.34
2023-01-17T08:43:50.357Z,86.14
2023-01-17T08:46:19.573Z,85.88
2023-01-17T08:48:48.228Z,84.59
2023-01-17T08:51:18.297Z,84.16
2023-01-17T08:53:46.709Z,84.73
2023-01-17T08:56:15.321Z,84.25
2023-01-17T08:58:43.731Z,83.94
2023-01-17T09:01:12.488Z,84.18
2023-01-17T09:03:41.224Z,84.90
2023-01-17T09:06:11.983Z,84.11
2023-01-17T09:08:42.237Z,83.54
2023-01-17T09:11:13.340Z,84.75
2023-01-17T09:13:42.653Z,84.81
2023-01-17T09:16:11.492Z,85.54
2023-01-17T09:18:39.996Z,85.10
2023-01-17T09:21:13.083Z,85.54
2023-01-17T09:23:43.872Z,84.42
2023-01-17T09:26:20.570Z,85.62
2023-01-17T09:28:49.271Z,86.24
2023-01-17T09:31:18.263Z,87.14
2023-01-17T09:33:46.679Z,86.25
2023-01-17T09:36:15.804Z,85.93
2023-01-17T09:38:45.890Z,85.30
2023-01-17T09:41:27.653Z,85.07
2023-01-17T09:44:04.573Z,83.96
2023-01-17T09:46:37.771Z,85.48
2023-01-17T09:49:10.779Z,84.25
2023-01-17T09:51:39.475Z,85.10
2023-01-17T09:54:22.825Z,84.86
2023-01-17T09:57:00.782Z,85.12
2023-01-17T09:59:37.963Z,83.82
2023-01-17T10:02:27.701Z,83.69
2023-01-17T10:05:29.804Z,84.04
2023-01-17T10:08:15.237Z,83.48
2023-01-17T10:10:57.821Z,83.69
2023-01-17T10:13:38.639Z,83.95
2023-01-17T10:16:24.239Z,84.45
2023-01-17T10:19:20.520Z,83.08
2023-01-17T10:22:20.742Z,83.54
2023-01-17T10:25:36.615Z,84.00
2023-01-17T10:28:16.671Z,83.32
2023-01-17T10:30:50.192Z,83.06
2023-01-17T10:33:22.688Z,81.94
2023-01-17T10:36:00.503Z,82.14
2023-01-17T10:38:36.077Z,82.84
2023-01-17T10:41:09.496Z,82.82
2023-01-17T10:43:49.408Z,83.26
2023-01-17T10:46:24.337Z,82.22
2023-01-17T10:48:54.067Z,82.13
2023-01-17T10:51:51.546Z,81.69
2023-01-17T10:54:36.163Z,81.92
2023-01-17T10:57:04.952Z,81.44
2023-01-17T10:59:37.196Z,81.13
2023-01-17T11:02:20.675Z,80.70
2023-01-17T11:04:54.565Z,81.30
2023-01-17T11:07:26.637Z,82.27
2023-01-17T11:09:56.674Z,81.89
2023-01-17T11:12:30.615Z,81.17
2023-01-17T11:15:19.784Z,82.57
2023-01-17T11:17:54.268Z,81.65
2023-01-17T11:20:31.127Z,80.79
2023-01-17T11:23:08.577Z,81.39
2023-01-17T11:25:37.415Z,81.28
2023-01-17T11:28:11.965Z,81.54
2023-01-17T11:30:54.630Z,80.58
2023-01-17T11:33:45.439Z,81.00
2023-01-17T11:36:22.530Z,80.09
2023-01-17T11:38:59.847Z,78.88
2023-01-17T11:41:29.326Z,78.23
2023-01-17T11:44:00.158Z,78.03
2023-01-17T11:46:30.345Z,79.76
2023-01-17T11:49:01.541Z,80.13
2023-01-17T11:51:33.643Z,80.07
2023-01-17T11:54:16.871Z,79.36
2023-01-17T11:56:46.520Z,79.13
2023-01-17T11:59:30.189Z,78.44
2023-01-17T12:02:35.870Z,79.62
2023-01-17T12:05:25.904Z,79.56
2023-01-17T12:08:06.472Z,78.64
2023-01-17T12:10:42.684Z,78.79
2023-01-17T12:13:38.177Z,79.01
2023-01-17T12:16:28.535Z,79.61
2023-01-17T12:19:11.427Z,79.44
2023-01-17T12:21:51.469Z,79.31
2023-01-17T12:24:58.400Z,79.18
2023-01-17T12:27:36.291Z,78.32
2023-01-17T12:30:31.814Z,79.08
2023-01-17T12:33:20.199Z,79.00
2023-01-17T12:35:55.184Z,79.42
2023-01-17T12:38:33.440Z,79.75
2023-01-17T12:41:09.683Z,78.83
2023-01-17T12:43:42.237Z,78.91
2023-01-17T12:46:21.034Z,79.58
2023-01-17T12:48:53.185Z,79.72
2023-01-17T12:51:29.428Z,80.46
2023-01-17T12:54:04.523Z,80.09
2023-01-17T12:56:38.649Z,80.14
2023-01-17T12:59:18.021Z,80.22
2023-01-17T13:01:58.551Z,79.84
2023-01-17T13:04:32.632Z,79.51
2023-01-17T13:07:13.747Z,79.13
2023-01-17T13:09:47.745Z,79.49
2023-01-17T13:12:19.918Z,80.75
2023-01-17T13:14:48.937Z,79.87
2023-01-17T13:17:32.700Z,85.58
2023-01-17T13:20:10.480Z,79.81
2023-01-17T13:22:42.088Z,79.69
2023-01-17T13:25:31.093Z,80.02
2023-01-17T13:28:10.935Z,79.82
2023-01-17T13:31:16.975Z,79.79
2023-01-17T13:34:27.183Z,79.75
2023-01-17T13:37:20.801Z,80.17
2023-01-17T13:40:20.005Z,78.17
2023-01-17T13:42:57.119Z,79.74
2023-01-17T13:45:30.034Z,79.09
2023-01-17T13:48:26.749Z,80.20
2023-01-17T13:50:56.837Z,79.89
2023-01-17T13:53:49.100Z,79.86
2023-01-17T13:56:43.585Z,82.58
2023-01-17T13:59:30.709Z,78.23
2023-01-17T14:01:59.468Z,79.47
2023-01-17T14:05:15.422Z,79.82
2023-01-17T14:07:49.664Z,79.86
2023-01-17T14:10:33.599Z,80.07
2023-01-17T14:13:06.203Z,81.92
2023-01-17T14:15:37.130Z,81.11
2023-01-17T14:18:08.286Z,80.88
2023-01-17T14:21:06.335Z,81.40
2023-01-17T14:24:03.792Z,81.40
2023-01-17T14:26:43.276Z,81.30
2023-01-17T14:29:59.524Z,81.47
2023-01-17T14:32:32.561Z,81.48
2023-01-17T14:35:01.292Z,82.83
2023-01-17T14:37:46.187Z,81.39
2023-01-17T14:40:21.268Z,81.58
2023-01-17T14:42:59.690Z,81.92
2023-01-17T14:45:32.164Z,81.93
2023-01-17T14:48:03.799Z,81.98
2023-01-17T14:50:38.173Z,83.26
2023-01-17T14:53:20.462Z,83.31
2023-01-17T14:55:56.547Z,83.85
2023-01-17T14:58:28.518Z,83.97
2023-01-17T15:01:02.256Z,84.52
2023-01-17T15:03:35.324Z,84.82
2023-01-17T15:06:12.617Z,83.82
2023-01-17T15:08:41.473Z,85.08
2023-01-17T15:11:18.699Z,84.42
2023-01-17T15:13:50.876Z,84.08
2023-01-17T15:16:24.939Z,83.13
2023-01-17T15:18:54.897Z,83.77
2023-01-17T15:21:26.026Z,82.98
2023-01-17T15:23:57.994Z,82.74
2023-01-17T15:26:29.515Z,82.87
2023-01-17T15:29:05.902Z,84.67
2023-01-17T15:31:44.494Z,86.28
2023-01-17T15:34:25.219Z,83.89
2023-01-17T15:36:54.575Z,83.93
2023-01-17T15:39:28.024Z,84.70
2023-01-17T15:41:59.281Z,83.97
2023-01-17T15:44:49.974Z,84.70
2023-01-17T15:47:35.512Z,83.88
2023-01-17T15:50:31.372Z,84.94
2023-01-17T15:53:02.566Z,84.71
2023-01-17T15:55:34.514Z,84.38
2023-01-17T15:58:04.026Z,84.38
2023-01-17T16:00:39.514Z,84.19
2023-01-17T16:03:24.864Z,85.71
2023-01-17T16:05:57.966Z,85.69
2023-01-17T16:08:39.742Z,85.79
2023-01-17T16:11:13.546Z,85.48
2023-01-17T16:13:43.469Z,84.56
2023-01-17T16:16:23.009Z,85.33
2023-01-17T16:19:01.757Z,85.77
2023-01-17T16:21:32.294Z,85.77
2023-01-17T16:24:02.913Z,84.71
2023-01-17T16:26:31.382Z,86.25
2023-01-17T16:28:59.832Z,85.99
2023-01-17T16:31:28.244Z,85.48
2023-01-17T16:33:58.025Z,85.63
2023-01-17T16:36:28.807Z,86.97
2023-01-17T16:38:57.395Z,86.73
2023-01-17T16:41:25.818Z,85.71
2023-01-17T16:44:03.214Z,86.53
2023-01-17T16:46:31.910Z,85.04
2023-01-17T16:49:05.259Z,85.03
2023-01-17T16:51:34.523Z,86.12
2023-01-17T16:54:03.345Z,85.29
2023-01-17T16:56:31.835Z,85.79
2023-01-17T16:59:00.247Z,86.16
2023-01-17T17:01:28.728Z,86.60
2023-01-17T17:03:57.277Z,86.89
2023-01-17T17:06:27.384Z,86.82
2023-01-17T17:08:56.940Z,86.10
2023-01-17T17:11:25.783Z,86.42
2023-01-17T17:13:54.378Z,85.85
2023-01-17T17:16:27.420Z,86.65
2023-01-17T17:18:57.787Z,86.33
2023-01-17T17:21:28.847Z,86.58
2023-01-17T17:23:59.508Z,85.67
2023-01-17T17:26:31.073Z,86.82
2023-01-17T17:29:00.003Z,86.60
2023-01-17T17:31:29.028Z,88.10
2023-01-17T17:34:00.713Z,87.28
2023-01-17T17:36:31.396Z,86.14
2023-01-17T17:39:02.044Z,86.74
2023-01-17T17:41:32.956Z,87.81
2023-01-17T17:44:02.641Z,86.98
2023-01-17T17:46:33.755Z,87.21
2023-01-17T17:49:02.919Z,86.79
2023-01-17T17:51:35.188Z,85.87
2023-01-17T17:54:07.651Z,85.49
2023-01-17T17:56:37.238Z,85.55
2023-01-17T17:59:09.240Z,86.21
2023-01-17T18:01:38.279Z,86.07
2023-01-17T18:04:08.217Z,86.56
2023-01-17T18:06:39.086Z,85.85
2023-01-17T18:09:08.293Z,86.13
2023-01-17T18:11:42.627Z,86.50
2023-01-17T18:14:15.033Z,85.54
2023-01-17T18:16:47.118Z,85.62
2023-01-17T18:19:18.880Z,85.75
2023-01-17T18:21:50.361Z,86.31
2023-01-17T18:24:22.200Z,86.70
2023-01-17T18:26:52.199Z,86.46
2023-01-17T18:29:22.813Z,86.33
2023-01-17T18:31:52.634Z,86.02
2023-01-17T18:34:24.380Z,86.41
2023-01-17T18:36:54.380Z,85.62
2023-01-17T18:39:25.929Z,86.48
2023-01-17T18:41:55.077Z,86.83
2023-01-17T18:44:23.929Z,86.05
2023-01-17T18:46:54.042Z,86.09
2023-01-17T18:49:22.522Z,86.41
2023-01-17T18:51:51.892Z,86.37
2023-01-17T18:54:22.253Z,86.41
2023-01-17T18:56:51.159Z,87.24
2023-01-17T18:59:20.415Z,86.84
2023-01-17T19:01:49.659Z,86.04
2023-01-17T19:04:19.813Z,86.24
2023-01-17T19:06:50.617Z,86.34
2023-01-17T19:09:19.543Z,86.76
2023-01-17T19:11:51.391Z,86.92
2023-01-17T19:14:19.930Z,87.19
2023-01-17T19:16:48.358Z,86.39
2023-01-17T19:19:17.467Z,87.17
2023-01-17T19:21:45.941Z,85.89
2023-01-17T19:24:14.674Z,86.09
2023-01-17T19:26:45.825Z,86.58
2023-01-17T19:29:15.975Z,86.38
2023-01-17T19:31:44.831Z,86.33
2023-01-17T19:34:15.991Z,87.10
2023-01-17T19:36:44.600Z,87.05
2023-01-17T19:39:13.448Z,87.89
2023-01-17T19:41:44.981Z,87.03
2023-01-17T19:44:16.597Z,86.38
2023-01-17T19:46:46.268Z,87.72
2023-01-17T19:52:05.934Z,88.16
2023-01-17T19:54:34.801Z,87.82
2023-01-17T19:57:03.439Z,87.25
2023-01-17T19:59:33.510Z,87.95
2023-01-17T20:02:02.269Z,86.89
2023-01-17T20:04:31.237Z,87.81
2023-01-17T20:06:59.641Z,87.47
2023-01-17T20:09:28.099Z,87.52
2023-01-17T20:11:56.569Z,87.62
2023-01-17T20:14:25.207Z,89.27
2023-01-17T20:16:55.072Z,88.84
2023-01-17T20:19:23.864Z,87.93
2023-01-17T20:21:52.917Z,87.40
2023-01-17T20:24:21.326Z,87.21
2023-01-17T20:26:51.421Z,87.82
2023-01-17T20:29:20.262Z,87.23
2023-01-17T20:31:53.684Z,87.08
2023-01-17T20:34:25.787Z,86.98
2023-01-17T20:36:57.761Z,87.31
2023-01-17T20:39:26.294Z,87.88
2023-01-17T20:41:54.731Z,88.33
2023-01-17T20:44:23.959Z,87.22
2023-01-17T20:46:52.429Z,87.94
2023-01-17T20:49:22.598Z,88.45
2023-01-17T20:51:51.032Z,87.96
2023-01-17T20:54:20.924Z,88.92
2023-01-17T20:56:49.372Z,88.65
2023-01-17T20:59:19.925Z,87.70
2023-01-17T21:01:48.831Z,88.08
2023-01-17T21:04:23.812Z,87.03
2023-01-17T21:06:54.737Z,87.36
2023-01-17T21:09:23.219Z,87.93
2023-01-17T21:11:51.905Z,88.55
2023-01-17T21:14:21.690Z,87.39
2023-01-17T21:16:51.550Z,87.46
2023-01-17T21:19:20.529Z,88.35
2023-01-17T21:21:50.303Z,87.68
2023-01-17T21:24:20.229Z,87.57
2023-01-17T21:26:51.645Z,87.18
2023-01-17T21:29:20.102Z,88.03
2023-01-17T21:31:48.748Z,87.42
2023-01-17T21:34:17.168Z,87.95
2023-01-17T21:36:46.560Z,87.09
2023-01-17T21:39:17.904Z,87.42
2023-01-17T21:41:50.856Z,88.55
2023-01-17T21:44:22.203Z,87.73
2023-01-17T21:46:55.849Z,87.07
2023-01-17T21:49:24.909Z,89.37
2023-01-17T21:52:10.638Z,88.69
2023-01-17T21:54:56.821Z,87.86
2023-01-17T21:57:44.247Z,86.73
2023-01-17T22:00:15.713Z,87.41
2023-01-17T22:02:44.844Z,87.11
2023-01-17T22:05:13.697Z,87.27
2023-01-17T22:08:02.733Z,87.75
2023-01-17T22:10:31.298Z,88.53
2023-01-17T22:13:01.089Z,89.57
2023-01-17T22:15:29.569Z,89.12
2023-01-17T22:17:58.687Z,88.82
2023-01-17T22:20:27.400Z,88.25
2023-01-17T22:22:56.400Z,89.32
2023-01-17T22:25:25.031Z,87.95
2023-01-17T22:27:53.678Z,88.19
2023-01-17T22:30:23.602Z,87.78
2023-01-17T22:32:52.054Z,88.30
2023-01-17T22:35:20.770Z,88.21
2023-01-17T22:37:49.175Z,88.96
2023-01-17T22:40:18.298Z,88.30
2023-01-17T22:42:46.752Z,86.99
2023-01-17T22:45:17.380Z,86.12
2023-01-17T22:47:47.169Z,85.66
2023-01-17T22:50:15.821Z,86.46
2023-01-17T22:52:44.245Z,86.93
2023-01-17T22:55:13.268Z,86.06
2023-01-17T22:57:41.764Z,85.42
2023-01-17T23:00:14.821Z,85.44
2023-01-17T23:02:43.783Z,85.21
2023-01-17T23:05:14.257Z,86.55
2023-01-17T23:07:45.288Z,85.61
2023-01-17T23:10:35.957Z,84.79
2023-01-17T23:13:04.626Z,85.36
2023-01-17T23:15:50.523Z,85.86
2023-01-17T23:18:36.732Z,84.92
2023-01-17T23:21:09.199Z,84.39
2023-01-17T23:23:37.610Z,84.52
2023-01-17T23:26:06.293Z,85.43
2023-01-17T23:28:33.712Z,85.30
2023-01-17T23:31:05.076Z,85.97
2023-01-17T23:33:33.516Z,86.90
2023-01-17T23:36:01.964Z,86.33
2023-01-17T23:38:33.979Z,87.23
2023-01-17T23:41:24.074Z,85.40
2023-01-17T23:43:53.584Z,84.54
2023-01-17T23:46:22.863Z,84.19
2023-01-17T23:48:51.557Z,84.08
2023-01-17T23:51:20.322Z,83.95
2023-01-17T23:53:53.646Z,84.25
2023-01-17T23:56:24.657Z,83.09
2023-01-17T23:58:53.213Z,83.91
